createdAt,value
2022-11-25T00:01:33.465Z,100953.78
2022-11-25T00:04:01.614Z,100955.13
2022-11-25T00:06:35.505Z,100957.59
2022-11-25T00:09:12.819Z,100955.63
2022-11-25T00:11:42.947Z,100957.72
2022-11-25T00:14:15.609Z,100956.53
2022-11-25T00:16:48.127Z,100955.13
2022-11-25T00:19:16.481Z,100958.22
2022-11-25T00:21:43.640Z,100960.59
2022-11-25T00:24:13.135Z,100953.31
2022-11-25T00:26:40.166Z,100955.38
2022-11-25T00:29:11.244Z,100961.19
2022-11-25T00:31:40.595Z,100960.69
2022-11-25T00:34:11.821Z,100961.31
2022-11-25T00:36:38.942Z,100959.06
2022-11-25T00:39:17.503Z,100957.56
2022-11-25T00:42:05.194Z,100955.00
2022-11-25T00:44:42.039Z,100956.78
2022-11-25T00:47:20.462Z,100966.19
2022-11-25T00:49:51.453Z,100967.78
2022-11-25T00:52:27.524Z,100972.63
2022-11-25T00:54:54.909Z,100969.41
2022-11-25T00:57:24.303Z,100966.63
2022-11-25T00:59:51.452Z,100962.38
2022-11-25T01:02:19.986Z,100958.72
2022-11-25T01:04:47.442Z,100949.78
2022-11-25T01:07:16.781Z,100956.41
2022-11-25T01:09:44.074Z,100966.03
2022-11-25T01:12:11.175Z,100969.09
2022-11-25T01:14:38.799Z,100973.88
2022-11-25T01:17:06.351Z,100965.09
2022-11-25T01:19:34.468Z,100973.22
2022-11-25T01:22:01.538Z,100972.88
2022-11-25T01:24:28.553Z,100969.66
2022-11-25T01:26:56.017Z,100966.81
2022-11-25T01:29:23.366Z,100964.56
2022-11-25T01:31:51.123Z,100971.94
2022-11-25T01:34:23.563Z,100967.66
2022-11-25T01:36:51.397Z,100965.47
2022-11-25T01:39:27.032Z,100963.66
2022-11-25T01:42:01.050Z,100963.91
2022-11-25T01:44:32.181Z,100959.50
2022-11-25T01:47:04.790Z,100955.50
2022-11-25T01:49:37.280Z,100950.22
2022-11-25T01:52:25.012Z,100942.25
2022-11-25T01:55:14.349Z,100937.03
2022-11-25T01:57:54.421Z,100942.47
2022-11-25T02:00:22.219Z,100944.41
2022-11-25T02:02:53.160Z,100946.66
2022-11-25T02:06:07.240Z,100944.25
2022-11-25T02:08:34.329Z,100947.22
2022-11-25T02:11:04.635Z,100945.25
2022-11-25T02:13:33.322Z,100945.38
2022-11-25T02:16:00.649Z,100938.31
2022-11-25T02:18:28.097Z,100942.13
2022-11-25T02:20:55.495Z,100940.91
2022-11-25T02:23:52.333Z,100943.03
2022-11-25T02:26:20.328Z,100944.59
2022-11-25T02:28:48.702Z,100942.47
2022-11-25T02:31:23.849Z,100934.06
2022-11-25T02:33:51.033Z,100930.69
2022-11-25T02:36:22.868Z,100934.84
2022-11-25T02:39:00.663Z,100932.53
2022-11-25T02:41:42.555Z,100933.28
2022-11-25T02:44:09.994Z,100922.44
2022-11-25T02:46:37.186Z,100932.81
2022-11-25T02:49:09.220Z,100935.97
2022-11-25T02:51:40.418Z,100933.63
2022-11-25T02:54:08.049Z,100933.88
2022-11-25T02:56:37.110Z,100931.47
2022-11-25T02:59:04.899Z,100932.09
2022-11-25T03:01:33.261Z,100936.34
2022-11-25T03:04:01.012Z,100936.09
2022-11-25T03:06:29.858Z,100940.13
2022-11-25T03:08:57.809Z,100933.31
2022-11-25T03:11:45.499Z,100939.44
2022-11-25T03:14:12.775Z,100932.91
2022-11-25T03:16:40.023Z,100937.47
2022-11-25T03:19:08.449Z,100938.94
2022-11-25T03:21:35.494Z,100950.47
2022-11-25T03:24:02.541Z,100948.44
2022-11-25T03:26:29.617Z,100948.84
2022-11-25T03:28:56.762Z,100947.63
2022-11-25T03:31:23.812Z,100944.00
2022-11-25T03:33:50.862Z,100950.22
2022-11-25T03:36:17.851Z,100946.34
2022-11-25T03:38:44.848Z,100951.25
2022-11-25T03:41:15.958Z,100964.88
2022-11-25T03:43:42.951Z,100967.63
2022-11-25T03:46:10.042Z,100963.53
2022-11-25T03:48:37.249Z,100971.53
2022-11-25T03:51:07.751Z,100963.97
2022-11-25T03:53:37.237Z,100972.69
2022-11-25T03:56:09.822Z,100967.66
2022-11-25T03:58:48.450Z,100971.53
2022-11-25T04:01:15.501Z,100957.28
2022-11-25T04:03:42.679Z,100966.91
2022-11-25T04:06:12.734Z,100968.25
2022-11-25T04:08:39.756Z,100965.63
2022-11-25T04:11:06.831Z,100963.78
2022-11-25T04:13:35.330Z,100974.13
2022-11-25T04:16:02.635Z,100972.38
2022-11-25T04:18:29.929Z,100971.41
2022-11-25T04:20:58.055Z,100972.78
2022-11-25T04:23:28.303Z,100964.16
2022-11-25T04:25:55.664Z,100968.28
2022-11-25T04:28:22.632Z,100974.25
2022-11-25T04:30:49.903Z,100974.50
2022-11-25T04:33:17.164Z,100973.50
2022-11-25T04:35:45.463Z,100972.50
2022-11-25T04:38:15.930Z,100977.09
2022-11-25T04:40:43.086Z,100977.31
2022-11-25T04:43:15.947Z,100977.56
2022-11-25T04:46:12.546Z,100983.44
2022-11-25T04:48:30.209Z,100989.63
2022-11-25T04:50:57.255Z,100978.25
2022-11-25T04:53:26.748Z,100997.97
2022-11-25T04:55:53.969Z,100999.41
2022-11-25T04:58:41.017Z,100995.72
2022-11-25T05:01:08.070Z,100997.41
2022-11-25T05:03:35.326Z,100995.53
2022-11-25T05:06:10.255Z,100994.53
2022-11-25T05:08:37.189Z,101001.47
2022-11-25T05:11:04.292Z,100998.13
2022-11-25T05:13:31.284Z,100998.31
2022-11-25T05:16:00.433Z,100999.28
2022-11-25T05:18:27.571Z,100990.16
2022-11-25T05:20:54.579Z,101002.44
2022-11-25T05:23:24.510Z,101000.63
2022-11-25T05:25:51.518Z,100992.47
2022-11-25T05:28:18.627Z,101000.91
2022-11-25T05:30:45.803Z,100993.72
2022-11-25T05:33:13.000Z,100995.28
2022-11-25T05:35:40.009Z,100996.53
2022-11-25T05:38:07.022Z,100999.28
2022-11-25T05:40:34.528Z,100996.97
2022-11-25T05:43:02.996Z,100992.81
2022-11-25T05:45:29.991Z,101004.78
2022-11-25T05:47:59.672Z,101000.13
2022-11-25T05:50:26.647Z,101003.59
2022-11-25T05:52:53.679Z,101002.56
2022-11-25T05:55:21.000Z,101001.16
2022-11-25T05:57:47.985Z,101004.69
2022-11-25T06:00:15.712Z,101011.16
2022-11-25T06:02:43.114Z,101009.78
2022-11-25T06:05:10.185Z,101003.31
2022-11-25T06:07:37.195Z,101005.13
2022-11-25T06:10:05.082Z,101012.59
2022-11-25T06:12:32.075Z,101020.13
2022-11-25T06:14:59.330Z,101014.56
2022-11-25T06:17:26.555Z,101013.03
2022-11-25T06:19:53.750Z,101016.31
2022-11-25T06:22:21.004Z,101019.09
2022-11-25T06:24:55.383Z,101023.09
2022-11-25T06:27:26.174Z,101015.41
2022-11-25T06:29:55.907Z,101016.75
2022-11-25T06:32:23.373Z,101015.25
2022-11-25T06:34:50.395Z,101016.50
2022-11-25T06:37:18.083Z,101015.72
2022-11-25T06:39:45.271Z,101014.09
2022-11-25T06:42:12.331Z,101017.69
2022-11-25T06:44:39.408Z,101017.44
2022-11-25T06:47:06.732Z,101015.03
2022-11-25T06:49:34.181Z,101010.72
2022-11-25T06:52:01.615Z,101015.38
2022-11-25T06:54:29.019Z,101011.91
2022-11-25T06:56:56.182Z,101014.66
2022-11-25T06:59:26.607Z,101020.03
2022-11-25T07:01:53.695Z,101014.13
2022-11-25T07:04:20.815Z,101021.38
2022-11-25T07:06:50.642Z,101032.31
2022-11-25T07:09:19.500Z,101032.16
2022-11-25T07:11:47.090Z,101033.72
2022-11-25T07:14:17.196Z,101031.28
2022-11-25T07:16:46.032Z,101039.81
2022-11-25T07:19:17.286Z,101042.94
2022-11-25T07:21:46.376Z,101041.88
2022-11-25T07:24:26.080Z,101041.16
2022-11-25T07:26:53.157Z,101052.66
2022-11-25T07:29:50.451Z,101056.75
2022-11-25T07:32:10.815Z,101062.19
2022-11-25T07:34:38.416Z,101059.06
2022-11-25T07:37:05.545Z,101059.50
2022-11-25T07:39:32.859Z,101067.72
2022-11-25T07:41:59.921Z,101064.25
2022-11-25T07:44:27.049Z,101064.50
2022-11-25T07:46:54.128Z,101056.94
2022-11-25T07:49:26.933Z,101062.16
2022-11-25T07:52:01.305Z,101073.78
2022-11-25T07:54:31.143Z,101072.91
2022-11-25T07:56:58.332Z,101072.13
2022-11-25T07:59:25.709Z,101070.81
2022-11-25T08:01:55.616Z,101078.69
2022-11-25T08:04:23.819Z,101083.38
2022-11-25T08:06:53.545Z,101085.97
2022-11-25T08:09:23.945Z,101090.78
2022-11-25T08:11:51.482Z,101083.66
2022-11-25T08:14:21.793Z,101077.97
2022-11-25T08:16:51.933Z,101068.59
2022-11-25T08:19:19.723Z,101076.84
2022-11-25T08:21:50.103Z,101089.00
2022-11-25T08:24:20.907Z,101088.22
2022-11-25T08:26:49.149Z,101087.78
2022-11-25T08:29:19.307Z,101090.44
2022-11-25T08:31:47.026Z,101086.34
2022-11-25T08:34:24.064Z,101079.03
2022-11-25T08:36:52.002Z,101075.88
2022-11-25T08:39:51.067Z,101083.19
2022-11-25T08:42:09.418Z,101085.72
2022-11-25T08:44:37.617Z,101082.22
2022-11-25T08:47:04.884Z,101082.91
2022-11-25T08:49:37.525Z,101095.50
2022-11-25T08:52:07.815Z,101086.41
2022-11-25T08:54:35.201Z,101085.16
2022-11-25T08:57:02.628Z,101083.63
2022-11-25T08:59:29.637Z,101089.66
2022-11-25T09:01:56.781Z,101086.97
2022-11-25T09:04:23.851Z,101095.53
2022-11-25T09:06:50.841Z,101102.06
2022-11-25T09:09:17.936Z,101096.97
2022-11-25T09:11:45.164Z,101102.00
2022-11-25T09:14:12.734Z,101112.19
2022-11-25T09:16:40.249Z,101104.53
2022-11-25T09:19:07.278Z,101103.59
2022-11-25T09:21:34.305Z,101113.81
2022-11-25T09:24:01.342Z,101110.00
2022-11-25T09:26:35.720Z,101103.03
2022-11-25T09:29:03.509Z,101108.06
2022-11-25T09:31:30.640Z,101097.88
2022-11-25T09:33:57.801Z,101102.72
2022-11-25T09:36:25.190Z,101101.47
2022-11-25T09:38:52.935Z,101101.81
2022-11-25T09:41:52.630Z,101098.75
2022-11-25T09:45:14.506Z,101103.31
2022-11-25T09:48:06.170Z,101104.34
2022-11-25T09:51:09.246Z,101102.31
2022-11-25T09:53:47.406Z,101101.47
2022-11-25T09:56:38.244Z,101105.94
2022-11-25T09:59:08.076Z,101099.72
2022-11-25T10:01:59.202Z,101099.22
2022-11-25T10:04:45.569Z,101098.63
2022-11-25T10:07:33.166Z,101102.63
2022-11-25T10:10:05.364Z,101100.72
2022-11-25T10:12:42.444Z,101100.44
2022-11-25T10:15:23.426Z,101102.13
2022-11-25T10:18:00.601Z,101091.31
2022-11-25T10:20:35.498Z,101085.22
2022-11-25T10:23:12.163Z,101094.47
2022-11-25T10:25:46.585Z,101090.41
2022-11-25T10:28:24.672Z,101089.88
2022-11-25T10:31:19.851Z,101086.75
2022-11-25T10:33:58.507Z,101093.19
2022-11-25T10:36:36.995Z,101094.47
2022-11-25T10:39:26.973Z,101098.34
2022-11-25T10:42:07.134Z,101086.88
2022-11-25T10:44:39.982Z,101084.91
2022-11-25T10:47:52.251Z,101072.22
2022-11-25T10:51:18.075Z,101077.41
2022-11-25T10:54:16.339Z,101075.56
2022-11-25T10:57:16.901Z,101076.00
2022-11-25T11:00:00.309Z,101086.44
2022-11-25T11:02:34.402Z,101082.09
2022-11-25T11:05:31.196Z,101090.66
2022-11-25T11:08:39.173Z,101085.06
2022-11-25T11:11:23.079Z,101089.13
2022-11-25T11:13:59.170Z,101089.28
2022-11-25T11:16:45.555Z,101086.41
2022-11-25T11:19:30.899Z,101078.81
2022-11-25T11:22:16.324Z,101081.47
2022-11-25T11:24:43.512Z,101077.09
2022-11-25T11:27:10.330Z,101074.94
2022-11-25T11:29:37.391Z,101082.19
2022-11-25T11:32:08.011Z,101088.16
2022-11-25T11:35:16.874Z,101089.91
2022-11-25T11:37:47.563Z,101091.75
2022-11-25T11:40:46.475Z,101091.31
2022-11-25T11:44:07.744Z,101089.38
2022-11-25T11:46:51.878Z,101080.91
2022-11-25T11:50:22.092Z,101081.34
2022-11-25T11:53:16.186Z,101088.69
2022-11-25T11:56:35.202Z,101088.00
2022-11-25T11:59:51.197Z,101076.34
2022-11-25T12:02:24.680Z,101084.09
2022-11-25T12:05:09.548Z,101083.94
2022-11-25T12:08:06.685Z,101080.09
2022-11-25T12:10:45.801Z,101080.09
2022-11-25T12:14:00.708Z,101072.50
2022-11-25T12:16:47.607Z,101070.97
2022-11-25T12:19:38.838Z,101067.44
2022-11-25T12:22:36.634Z,101061.81
2022-11-25T12:25:23.837Z,101068.41
2022-11-25T12:28:29.284Z,101062.53
2022-11-25T12:31:42.124Z,101067.22
2022-11-25T12:34:27.645Z,101067.84
2022-11-25T12:37:14.995Z,101075.78
2022-11-25T12:40:26.885Z,101079.63
2022-11-25T12:43:12.557Z,101079.22
2022-11-25T12:45:41.591Z,101075.72
2022-11-25T12:48:11.853Z,101079.69
2022-11-25T12:51:07.163Z,101079.53
2022-11-25T12:54:03.894Z,101078.94
2022-11-25T12:57:45.857Z,101078.31
2022-11-25T13:00:43.229Z,101078.53
2022-11-25T13:03:54.454Z,101077.25
2022-11-25T13:06:59.167Z,101079.38
2022-11-25T13:09:59.888Z,101071.75
2022-11-25T13:13:07.052Z,101076.19
2022-11-25T13:15:49.566Z,101068.78
2022-11-25T13:18:25.995Z,101067.16
2022-11-25T13:21:05.538Z,101079.53
2022-11-25T13:23:56.095Z,101082.78
2022-11-25T13:26:33.670Z,101078.19
2022-11-25T13:29:14.968Z,101084.75
2022-11-25T13:32:08.245Z,101087.41
2022-11-25T13:34:36.800Z,101091.69
2022-11-25T13:37:40.814Z,101091.09
2022-11-25T13:40:26.268Z,101092.59
2022-11-25T13:42:58.137Z,101104.25
2022-11-25T13:45:44.331Z,101104.53
2022-11-25T13:48:37.018Z,101105.69
2022-11-25T13:51:23.648Z,101107.31
2022-11-25T13:54:04.721Z,101113.88
2022-11-25T13:56:37.545Z,101111.91
2022-11-25T13:59:10.448Z,101114.19
2022-11-25T14:02:17.728Z,101116.97
2022-11-25T14:05:55.936Z,101116.88
2022-11-25T14:08:59.764Z,101111.16
2022-11-25T14:12:21.097Z,101115.81
2022-11-25T14:15:31.115Z,101113.91
2022-11-25T14:19:00.345Z,101122.63
2022-11-25T14:21:38.274Z,101122.38
2022-11-25T14:24:30.877Z,101122.63
2022-11-25T14:27:00.686Z,101125.28
2022-11-25T14:29:42.089Z,101122.31
2022-11-25T14:32:35.375Z,101135.44
2022-11-25T14:35:45.105Z,101129.41
2022-11-25T14:38:57.272Z,101135.72
2022-11-25T14:42:00.484Z,101128.25
2022-11-25T14:44:53.183Z,101134.81
2022-11-25T14:47:27.877Z,101132.44
2022-11-25T14:52:47.717Z,101141.91
2022-11-25T14:55:31.276Z,101138.06
2022-11-25T14:57:58.494Z,101134.69
2022-11-25T15:00:25.743Z,101139.41
2022-11-25T15:03:06.698Z,101142.06
2022-11-25T15:05:39.507Z,101146.69
2022-11-25T15:08:18.025Z,101157.31
2022-11-25T15:11:03.841Z,101159.63
2022-11-25T15:13:59.780Z,101161.75
2022-11-25T15:16:41.482Z,101159.97
2022-11-25T15:19:24.721Z,101166.16
2022-11-25T15:24:56.352Z,101177.81
2022-11-25T15:27:28.756Z,101180.94
2022-11-25T15:29:58.932Z,101183.75
2022-11-25T15:32:30.885Z,101178.84
2022-11-25T15:35:01.564Z,101177.81
2022-11-25T15:37:29.277Z,101179.63
2022-11-25T15:40:37.321Z,101171.28
2022-11-25T15:43:28.406Z,101165.09
2022-11-25T15:46:03.248Z,101166.66
2022-11-25T15:48:46.704Z,101166.16
2022-11-25T15:51:49.352Z,101168.41
2022-11-25T15:54:21.488Z,101168.47
2022-11-25T15:56:53.362Z,101172.13
2022-11-25T15:59:41.825Z,101168.53
2022-11-25T16:02:48.460Z,101171.00
2022-11-25T16:05:15.330Z,101163.56
2022-11-25T16:07:51.435Z,101158.47
2022-11-25T16:10:32.999Z,101161.41
2022-11-25T16:13:22.187Z,101172.75
2022-11-25T16:16:07.326Z,101176.72
2022-11-25T16:19:04.879Z,101175.03
2022-11-25T16:21:46.100Z,101176.25
2022-11-25T16:24:48.886Z,101177.94
2022-11-25T16:27:26.899Z,101182.75
2022-11-25T16:30:18.551Z,101181.22
2022-11-25T16:32:45.638Z,101189.09
2022-11-25T16:35:18.235Z,101188.25
2022-11-25T16:37:48.833Z,101185.72
2022-11-25T16:40:18.857Z,101184.47
2022-11-25T16:42:50.063Z,101190.22
2022-11-25T16:45:27.720Z,101187.16
2022-11-25T16:47:55.241Z,101192.41
2022-11-25T16:50:22.889Z,101201.09
2022-11-25T16:52:50.084Z,101197.34
2022-11-25T16:55:18.514Z,101193.28
2022-11-25T16:57:45.853Z,101196.81
2022-11-25T17:00:18.034Z,101203.09
2022-11-25T17:02:45.945Z,101201.16
2022-11-25T17:05:22.511Z,101194.03
2022-11-25T17:07:50.348Z,101195.25
2022-11-25T17:10:19.187Z,101201.44
2022-11-25T17:12:48.545Z,101204.94
2022-11-25T17:15:28.317Z,101197.66
2022-11-25T17:17:55.444Z,101202.84
2022-11-25T17:20:25.083Z,101201.94
2022-11-25T17:22:53.988Z,101206.16
2022-11-25T17:25:29.955Z,101202.41
2022-11-25T17:28:00.956Z,101208.22
2022-11-25T17:30:28.603Z,101216.41
2022-11-25T17:33:10.839Z,101214.78
2022-11-25T17:35:37.824Z,101212.72
2022-11-25T17:38:21.284Z,101219.53
2022-11-25T17:40:50.448Z,101231.31
2022-11-25T17:43:20.890Z,101224.16
2022-11-25T17:45:47.968Z,101218.47
2022-11-25T17:48:18.583Z,101227.50
2022-11-25T17:50:46.840Z,101230.59
2022-11-25T17:53:13.906Z,101228.06
2022-11-25T17:55:41.937Z,101233.19
2022-11-25T17:58:14.580Z,101228.34
2022-11-25T18:00:45.190Z,101232.78
2022-11-25T18:03:18.829Z,101233.97
2022-11-25T18:05:46.030Z,101240.91
2022-11-25T18:08:13.015Z,101241.13
2022-11-25T18:10:40.336Z,101237.31
2022-11-25T18:13:07.377Z,101253.19
2022-11-25T18:15:34.694Z,101252.34
2022-11-25T18:18:06.831Z,101248.91
2022-11-25T18:20:34.785Z,101253.19
2022-11-25T18:23:01.938Z,101255.63
2022-11-25T18:25:33.952Z,101254.16
2022-11-25T18:28:03.353Z,101263.69
2022-11-25T18:30:36.057Z,101259.34
2022-11-25T18:33:06.103Z,101263.56
2022-11-25T18:35:36.744Z,101265.03
2022-11-25T18:38:05.681Z,101263.81
2022-11-25T18:40:36.079Z,101268.41
2022-11-25T18:43:04.739Z,101260.75
2022-11-25T18:45:37.580Z,101265.88
2022-11-25T18:48:25.226Z,101272.81
2022-11-25T18:50:55.873Z,101276.19
2022-11-25T18:53:23.532Z,101279.69
2022-11-25T18:55:50.643Z,101282.22
2022-11-25T18:58:19.934Z,101284.28
2022-11-25T19:00:49.350Z,101281.63
2022-11-25T19:03:25.826Z,101279.81
2022-11-25T19:05:59.285Z,101289.84
2022-11-25T19:08:26.449Z,101289.47
2022-11-25T19:10:53.635Z,101291.59
2022-11-25T19:13:33.164Z,101285.47
2022-11-25T19:16:12.690Z,101291.38
2022-11-25T19:18:40.424Z,101298.72
2022-11-25T19:21:09.956Z,101300.69
2022-11-25T19:23:36.939Z,101309.38
2022-11-25T19:26:12.630Z,101310.72
2022-11-25T19:28:40.412Z,101314.13
2022-11-25T19:31:10.225Z,101313.00
2022-11-25T19:33:41.599Z,101316.97
2022-11-25T19:36:23.890Z,101318.63
2022-11-25T19:38:51.615Z,101320.28
2022-11-25T19:41:20.433Z,101326.00
2022-11-25T19:43:47.573Z,101323.53
2022-11-25T19:46:41.185Z,101333.50
2022-11-25T19:49:19.799Z,101341.09
2022-11-25T19:51:48.744Z,101334.34
2022-11-25T19:54:19.433Z,101343.34
2022-11-25T19:56:46.908Z,101342.16
2022-11-25T19:59:13.895Z,101342.94
2022-11-25T20:01:45.313Z,101346.72
2022-11-25T20:04:22.192Z,101352.19
2022-11-25T20:06:49.773Z,101356.31
2022-11-25T20:09:16.880Z,101365.66
2022-11-25T20:11:44.142Z,101364.75
2022-11-25T20:14:12.397Z,101363.53
2022-11-25T20:16:41.633Z,101369.75
2022-11-25T20:19:17.699Z,101374.81
2022-11-25T20:21:46.428Z,101374.09
2022-11-25T20:24:18.830Z,101382.78
2022-11-25T20:26:48.495Z,101383.63
2022-11-25T20:29:24.674Z,101387.81
2022-11-25T20:31:56.578Z,101389.19
2022-11-25T20:34:24.714Z,101398.81
2022-11-25T20:36:51.791Z,101393.34
2022-11-25T20:39:20.522Z,101388.09
2022-11-25T20:41:51.368Z,101393.28
2022-11-25T20:44:19.870Z,101391.72
2022-11-25T20:46:46.931Z,101397.34
2022-11-25T20:49:27.655Z,101402.75
2022-11-25T20:51:58.164Z,101408.34
2022-11-25T20:54:25.500Z,101406.22
2022-11-25T20:56:52.578Z,101405.13
2022-11-25T20:59:23.797Z,101412.09
2022-11-25T21:01:52.620Z,101409.56
2022-11-25T21:04:20.289Z,101419.34
2022-11-25T21:06:47.647Z,101417.78
2022-11-25T21:09:24.836Z,101423.28
2022-11-25T21:11:51.821Z,101426.59
2022-11-25T21:14:20.241Z,101427.41
2022-11-25T21:16:47.565Z,101425.81
2022-11-25T21:19:15.131Z,101426.09
2022-11-25T21:21:47.241Z,101427.50
2022-11-25T21:24:28.355Z,101426.88
2022-11-25T21:26:58.825Z,101435.56
2022-11-25T21:29:26.848Z,101431.56
2022-11-25T21:31:54.071Z,101434.16
2022-11-25T21:34:21.518Z,101445.09
2022-11-25T21:36:51.859Z,101445.94
2022-11-25T21:39:34.041Z,101443.09
2022-11-25T21:42:07.231Z,101445.94
2022-11-25T21:44:41.165Z,101453.53
2022-11-25T21:47:22.130Z,101448.22
2022-11-25T21:49:50.283Z,101447.75
2022-11-25T21:52:18.639Z,101449.78
2022-11-25T21:54:46.404Z,101445.50
2022-11-25T21:57:29.056Z,101455.72
2022-11-25T21:59:56.347Z,101446.22
2022-11-25T22:02:24.833Z,101446.50
2022-11-25T22:04:52.829Z,101453.69
2022-11-25T22:07:20.075Z,101455.28
2022-11-25T22:09:47.261Z,101459.28
2022-11-25T22:12:30.306Z,101462.56
2022-11-25T22:14:59.498Z,101461.53
2022-11-25T22:17:27.102Z,101462.50
2022-11-25T22:19:54.547Z,101458.44
2022-11-25T22:22:21.836Z,101466.84
2022-11-25T22:24:49.055Z,101468.75
2022-11-25T22:27:36.361Z,101474.56
2022-11-25T22:30:05.819Z,101469.97
2022-11-25T22:32:32.921Z,101480.34
2022-11-25T22:35:03.179Z,101479.91
2022-11-25T22:37:32.224Z,101483.53
2022-11-25T22:39:59.475Z,101481.56
2022-11-25T22:42:32.363Z,101488.00
2022-11-25T22:45:03.519Z,101492.97
2022-11-25T22:47:48.421Z,101495.50
2022-11-25T22:50:32.152Z,101501.41
2022-11-25T22:53:00.983Z,101502.25
2022-11-25T22:55:33.764Z,101506.94
2022-11-25T22:58:04.447Z,101511.38
2022-11-25T23:00:51.897Z,101516.16
2022-11-25T23:03:33.860Z,101512.72
2022-11-25T23:06:03.125Z,101515.03
2022-11-25T23:08:31.674Z,101513.34
2022-11-25T23:10:59.082Z,101514.03
2022-11-25T23:13:26.497Z,101519.19
2022-11-25T23:15:58.209Z,101526.84
2022-11-25T23:18:39.522Z,101522.50
2022-11-25T23:21:24.004Z,101526.00
2022-11-25T23:23:52.371Z,101525.94
2022-11-25T23:26:19.501Z,101525.88
2022-11-25T23:28:46.488Z,101529.38
2022-11-25T23:31:16.079Z,101533.06
2022-11-25T23:33:50.504Z,101532.28
2022-11-25T23:36:46.151Z,101539.03
2022-11-25T23:39:25.941Z,101540.78
2022-11-25T23:41:54.196Z,101535.59
2022-11-25T23:44:31.675Z,101539.75
2022-11-25T23:47:04.313Z,101543.28
2022-11-25T23:49:41.154Z,101551.19
2022-11-25T23:52:13.721Z,101545.28
2022-11-25T23:54:46.541Z,101547.94
2022-11-25T23:57:22.321Z,101545.34
2022-11-25T23:59:51.064Z,101555.47
